Terminal Aerodrome Forecast
Issued by NWS

Home | Current Version | Previous Version | Text Only | Print | Product List | Glossary On
Versions: 1 2 3 4 5 6 7 8 9 10 11 12 13 14 15 16 17
473
FTUS43 KIND 171142 AAA
TAFHUF
TAF AMD
KHUF 171142Z 1712/1812 13005KT P6SM BKN008
     FM171700 14009KT P6SM FEW035
     FM172300 16009KT P6SM OVC030
     FM180000 16010KT P6SM VCSH OVC030
     FM180500 18012G23KT P6SM -SHRA OVC025=

USA.gov is the U.S. government's official web portal to all federal, state and local government web resources and services.